Almaty Airport
UAAA : now visible

Airfield :











YOU CAN JOIN US ON...

 
LOGIN :

Register | Disclaimer

   EN    FR    IT 

 









Legend :    VFR   Marginal VFR   IFR   Intensive IFR   Very Intensive IFR
Visi :
Ceiling :
>= 8 km
>= 3000ft
5 to 8 km
1000 to 3000 ft
1500m to 5 km
500 to 1000 ft
800 to 1500m
200 to 500 ft
< 800m
< 200 ft
Symbols :   Thunderstorms  Fog  Heavy snow  Heavy precipitations  Wind > 20 kt






- Airport Elevation : 2234 ft
- IATA code : ALA


UAAA - Almaty

CURRENT METAR :
  • 210700Z 02003MPS 350V050 9999 NSC 24/M07 Q1016 R05R/CLRD65 NOSIG

EXPIRED METARs :
  • 210630Z 03003MPS 350V080 9999 NSC 24/M08 Q1017 R05R/CLRD65 NOSIG
  • 210600Z 04003MPS 020V100 9999 NSC 24/M08 Q1017 R05R/CLRD65 NOSIG
  • 210530Z 03002MPS 9999 NSC 23/M05 Q1017 R05R/CLRD65 NOSIG
  • 210500Z 36002MPS 330V030 9999 NSC 21/M04 Q1017 R05R/CLRD65 NOSIG
  • 210430Z VRB01MPS 9999 NSC 19/M04 Q1017 R05R/CLRD65 NOSIG

TAF TAF UAAA
Valid from the 21 at 06:00 until the 22 at 06:00 UTC


210500Z 2106/2206 04003G08MPS 9999 SCT100 TX26/2109Z TN05/2201Z
TEMPO 2108/2112 34004MPS
BECMG 2112/2113 16003MPS 3100 FU
TEMPO 2112/2120 20003MPS 1500
BECMG 2120/2121 22003MPS 5000 BR FU
TEMPO 2120/2206 28003G08MPS
UAAA FIR / Asia



MET'MAP, your aeronautical weather chart ! - Copyright ORBIFLY December 2007 - Disclaimer

ORBIFLY MET'MAP TEAM :

Programming & Development : Alexandra Zaïnal
Concept & original design : Baudouin d'Aumeries
Assistance for programming : Marc-Olivier Méhu
Technical & hardware support : Manuel Goepfert

Contact : metmap@orbifly.com




SOURCES & CREDITS :

   NOAA       Earth
Advisory